createdAt,value
2022-09-21T00:00:44.741Z,0.53
2022-09-21T00:03:11.587Z,0.70
2022-09-21T00:05:38.320Z,0.43
2022-09-21T00:08:05.908Z,0.50
2022-09-21T00:10:32.710Z,0.50
2022-09-21T00:13:00.227Z,0.53
2022-09-21T00:15:26.982Z,0.60
2022-09-21T00:17:54.013Z,0.80
2022-09-21T00:20:21.749Z,0.57
2022-09-21T00:22:48.588Z,0.67
2022-09-21T00:25:15.416Z,0.80
2022-09-21T00:27:42.214Z,0.40
2022-09-21T00:30:09.848Z,0.50
2022-09-21T00:32:37.522Z,0.70
2022-09-21T00:35:05.036Z,0.50
2022-09-21T00:37:31.716Z,0.60
2022-09-21T00:39:58.507Z,0.50
2022-09-21T00:42:27.588Z,0.40
2022-09-21T00:44:54.396Z,0.47
2022-09-21T00:47:35.392Z,0.60
2022-09-21T00:50:08.329Z,0.40
2022-09-21T00:52:37.634Z,0.40
2022-09-21T00:55:12.493Z,0.50
2022-09-21T00:57:39.247Z,0.50
2022-09-21T01:00:08.831Z,0.50
2022-09-21T01:02:38.818Z,1.03
2022-09-21T01:05:06.652Z,0.53
2022-09-21T01:07:35.241Z,0.47
2022-09-21T01:10:05.262Z,0.50
2022-09-21T01:12:42.278Z,0.60
2022-09-21T01:15:14.737Z,0.43
2022-09-21T01:17:56.508Z,0.70
2022-09-21T01:21:04.459Z,0.53
2022-09-21T01:23:45.665Z,0.70
2022-09-21T01:26:40.896Z,0.50
2022-09-21T01:29:12.713Z,0.50
2022-09-21T01:31:49.803Z,0.50
2022-09-21T01:34:44.399Z,0.63
2022-09-21T01:37:14.757Z,0.50
2022-09-21T01:39:42.282Z,0.60
2022-09-21T01:42:09.071Z,0.47
2022-09-21T01:44:35.736Z,0.40
2022-09-21T01:47:03.209Z,5.80
2022-09-21T01:49:41.299Z,0.60
2022-09-21T01:52:31.705Z,0.50
2022-09-21T01:55:24.244Z,0.70
2022-09-21T01:58:05.786Z,0.60
2022-09-21T02:00:32.757Z,0.60
2022-09-21T02:03:12.795Z,1.53
2022-09-21T02:05:40.367Z,0.70
2022-09-21T02:08:07.501Z,0.70
2022-09-21T02:10:37.035Z,0.70
2022-09-21T02:13:05.635Z,0.60
2022-09-21T02:15:56.006Z,0.67
2022-09-21T02:18:31.327Z,0.70
2022-09-21T02:20:58.759Z,0.63
2022-09-21T02:24:04.194Z,0.63
2022-09-21T02:26:35.101Z,0.50
2022-09-21T02:29:16.176Z,0.80
2022-09-21T02:32:11.559Z,0.63
2022-09-21T02:34:46.330Z,0.90
2022-09-21T02:37:24.637Z,0.70
2022-09-21T02:40:10.514Z,0.90
2022-09-21T02:42:40.725Z,0.70
2022-09-21T02:45:14.254Z,0.60
2022-09-21T02:47:48.243Z,0.70
2022-09-21T02:50:21.294Z,0.70
2022-09-21T02:52:48.380Z,0.87
2022-09-21T02:55:15.357Z,0.73
2022-09-21T02:57:42.089Z,0.70
2022-09-21T03:00:09.669Z,0.70
2022-09-21T03:02:40.140Z,0.70
2022-09-21T03:05:07.537Z,0.90
2022-09-21T03:07:34.413Z,0.60
2022-09-21T03:10:01.159Z,0.67
2022-09-21T03:12:27.963Z,0.50
2022-09-21T03:14:56.019Z,0.70
2022-09-21T03:17:22.687Z,0.50
2022-09-21T03:19:49.456Z,0.57
2022-09-21T03:22:17.968Z,0.70
2022-09-21T03:24:47.380Z,0.60
2022-09-21T03:27:18.211Z,0.50
2022-09-21T03:29:45.300Z,0.50
2022-09-21T03:32:12.152Z,0.57
2022-09-21T03:34:38.915Z,0.50
2022-09-21T03:37:06.408Z,0.60
2022-09-21T03:39:33.197Z,0.63
2022-09-21T03:42:00.472Z,0.57
2022-09-21T03:44:27.215Z,0.50
2022-09-21T03:46:54.093Z,0.53
2022-09-21T03:49:20.842Z,0.50
2022-09-21T03:51:47.602Z,0.70
2022-09-21T03:54:14.843Z,0.73
2022-09-21T03:56:41.608Z,0.80
2022-09-21T03:59:11.908Z,0.70
2022-09-21T04:01:40.975Z,1.00
2022-09-21T04:04:07.713Z,0.87
2022-09-21T04:06:34.545Z,3.23
2022-09-21T04:09:02.978Z,1.50
2022-09-21T04:11:30.124Z,0.50
2022-09-21T04:13:57.030Z,0.70
2022-09-21T04:16:25.450Z,0.80
2022-09-21T04:18:52.191Z,0.87
2022-09-21T04:21:19.313Z,0.40
2022-09-21T04:23:46.108Z,0.80
2022-09-21T04:26:30.221Z,0.60
2022-09-21T04:28:57.119Z,1.33
2022-09-21T04:31:24.362Z,0.50
2022-09-21T04:33:51.679Z,0.50
2022-09-21T04:36:19.004Z,0.60
2022-09-21T04:38:45.998Z,0.53
2022-09-21T04:41:12.961Z,0.50
2022-09-21T04:43:42.781Z,0.70
2022-09-21T04:46:11.073Z,0.67
2022-09-21T04:48:37.940Z,0.63
2022-09-21T04:51:06.361Z,0.80
2022-09-21T04:53:33.693Z,0.70
2022-09-21T04:56:00.673Z,1.03
2022-09-21T04:58:27.861Z,0.70
2022-09-21T05:00:57.248Z,0.60
2022-09-21T05:03:24.927Z,0.70
2022-09-21T05:05:53.167Z,1.20
2022-09-21T05:08:42.733Z,0.60
2022-09-21T05:11:15.910Z,0.60
2022-09-21T05:13:42.663Z,0.63
2022-09-21T05:16:09.582Z,0.60
2022-09-21T05:18:36.420Z,1.03
2022-09-21T05:21:03.649Z,0.70
2022-09-21T05:23:30.882Z,1.80
2022-09-21T05:25:58.196Z,1.47
2022-09-21T05:28:25.645Z,0.70
2022-09-21T05:31:16.770Z,0.60
2022-09-21T05:33:55.071Z,1.27
2022-09-21T05:36:42.017Z,0.80
2022-09-21T05:39:09.010Z,0.90
2022-09-21T05:41:36.097Z,1.63
2022-09-21T05:44:02.973Z,0.70
2022-09-21T05:46:39.914Z,0.60
2022-09-21T05:49:19.517Z,0.70
2022-09-21T05:51:58.037Z,0.77
2022-09-21T05:54:45.975Z,1.10
2022-09-21T05:57:17.637Z,0.93
2022-09-21T05:59:47.072Z,0.83
2022-09-21T06:02:41.742Z,0.60
2022-09-21T06:05:11.924Z,1.03
2022-09-21T06:07:38.671Z,1.07
2022-09-21T06:10:05.845Z,1.10
2022-09-21T06:12:32.905Z,0.90
2022-09-21T06:14:59.590Z,0.80
2022-09-21T06:17:27.479Z,0.97
2022-09-21T06:19:54.383Z,0.93
2022-09-21T06:22:21.141Z,0.70
2022-09-21T06:24:47.828Z,1.00
2022-09-21T06:27:14.500Z,1.43
2022-09-21T06:29:41.168Z,1.27
2022-09-21T06:32:07.900Z,1.83
2022-09-21T06:34:34.619Z,1.43
2022-09-21T06:37:01.352Z,1.03
2022-09-21T06:39:28.187Z,1.67
2022-09-21T06:41:55.475Z,1.40
2022-09-21T06:44:22.219Z,1.23
2022-09-21T06:46:48.935Z,1.40
2022-09-21T06:49:15.671Z,1.60
2022-09-21T06:51:43.300Z,1.40
2022-09-21T06:54:10.344Z,1.43
2022-09-21T06:56:38.160Z,1.00
2022-09-21T06:59:04.872Z,0.93
2022-09-21T07:01:31.666Z,1.10
2022-09-21T07:03:58.416Z,1.00
2022-09-21T07:06:25.135Z,1.17
2022-09-21T07:11:41.469Z,0.90
2022-09-21T07:14:08.271Z,1.07
2022-09-21T07:16:35.095Z,1.03
2022-09-21T07:19:11.192Z,1.00
2022-09-21T07:21:38.418Z,1.00
2022-09-21T07:24:09.512Z,1.10
2022-09-21T07:26:37.880Z,1.63
2022-09-21T07:29:04.729Z,1.13
2022-09-21T07:31:31.582Z,1.53
2022-09-21T07:33:59.198Z,1.83
2022-09-21T07:36:25.931Z,1.47
2022-09-21T07:38:53.481Z,1.33
2022-09-21T07:41:20.290Z,1.37
2022-09-21T07:43:47.256Z,1.37
2022-09-21T07:46:14.627Z,1.30
2022-09-21T07:48:41.399Z,1.20
2022-09-21T07:51:10.039Z,1.00
2022-09-21T07:53:37.733Z,0.83
2022-09-21T07:56:05.848Z,1.17
2022-09-21T07:58:51.051Z,1.27
2022-09-21T08:01:18.017Z,1.03
2022-09-21T08:03:44.838Z,0.93
2022-09-21T08:06:11.525Z,1.43
2022-09-21T08:08:41.694Z,0.87
2022-09-21T08:11:08.709Z,0.90
2022-09-21T08:13:35.451Z,0.97
2022-09-21T08:16:02.712Z,0.97
2022-09-21T08:18:29.764Z,1.10
2022-09-21T08:21:00.515Z,1.30
2022-09-21T08:23:29.073Z,1.03
2022-09-21T08:26:02.841Z,1.20
2022-09-21T08:28:31.195Z,0.90
2022-09-21T08:31:01.615Z,0.80
2022-09-21T08:33:29.687Z,0.70
2022-09-21T08:35:58.140Z,0.97
2022-09-21T08:38:25.226Z,1.20
2022-09-21T08:40:52.200Z,1.00
2022-09-21T08:43:40.517Z,0.80
2022-09-21T08:46:09.774Z,1.00
2022-09-21T08:48:40.179Z,0.70
2022-09-21T08:51:09.370Z,1.13
2022-09-21T08:53:46.606Z,1.10
2022-09-21T08:56:14.100Z,0.67
2022-09-21T08:58:41.251Z,0.83
2022-09-21T09:01:20.491Z,0.90
2022-09-21T09:04:10.503Z,0.50
2022-09-21T09:07:15.389Z,0.73
2022-09-21T09:09:44.923Z,0.80
2022-09-21T09:12:43.892Z,0.87
2022-09-21T09:15:29.656Z,0.43
2022-09-21T09:18:02.255Z,0.67
2022-09-21T09:20:38.321Z,0.83
2022-09-21T09:23:19.196Z,1.03
2022-09-21T09:25:47.304Z,0.80
2022-09-21T09:28:25.397Z,0.80
2022-09-21T09:31:02.575Z,0.67
2022-09-21T09:33:57.872Z,0.50
2022-09-21T09:36:53.984Z,0.50
2022-09-21T09:39:15.694Z,0.50
2022-09-21T09:42:22.041Z,0.50
2022-09-21T09:45:13.847Z,0.60
2022-09-21T09:48:02.614Z,0.60
2022-09-21T09:50:31.892Z,0.60
2022-09-21T09:53:14.321Z,0.43
2022-09-21T09:55:49.524Z,0.40
2022-09-21T09:58:38.505Z,1.07
2022-09-21T10:01:05.440Z,0.50
2022-09-21T10:03:32.188Z,0.73
2022-09-21T10:05:58.863Z,0.83
2022-09-21T10:08:42.199Z,1.77
2022-09-21T10:11:10.029Z,1.90
2022-09-21T10:13:38.255Z,2.07
2022-09-21T10:16:11.942Z,1.43
2022-09-21T10:18:46.787Z,1.40
2022-09-21T10:21:20.550Z,1.60
2022-09-21T10:23:49.495Z,2.40
2022-09-21T10:26:16.229Z,2.53
2022-09-21T10:29:03.088Z,3.27
2022-09-21T10:31:30.817Z,2.10
2022-09-21T10:34:16.433Z,1.43
2022-09-21T10:36:52.104Z,0.80
2022-09-21T10:39:32.309Z,5.10
2022-09-21T10:42:03.077Z,6.77
2022-09-21T10:44:43.405Z,5.70
2022-09-21T10:47:36.743Z,1.70
2022-09-21T10:50:23.218Z,2.60
2022-09-21T10:52:49.910Z,1.40
2022-09-21T10:55:18.319Z,1.47
2022-09-21T10:57:45.088Z,0.87
2022-09-21T11:00:31.792Z,1.23
2022-09-21T11:03:01.019Z,0.80
2022-09-21T11:05:36.979Z,0.60
2022-09-21T11:08:18.347Z,1.70
2022-09-21T11:11:23.573Z,1.40
2022-09-21T11:13:56.543Z,0.80
2022-09-21T11:16:25.210Z,0.60
2022-09-21T11:19:04.819Z,0.83
2022-09-21T11:21:55.923Z,1.07
2022-09-21T11:24:52.077Z,1.20
2022-09-21T11:27:21.768Z,0.60
2022-09-21T11:30:11.434Z,0.80
2022-09-21T11:32:47.326Z,0.50
2022-09-21T11:35:28.988Z,0.50
2022-09-21T11:37:58.501Z,0.50
2022-09-21T11:40:49.033Z,0.70
2022-09-21T11:43:31.889Z,0.50
2022-09-21T11:46:16.430Z,0.50
2022-09-21T11:49:16.960Z,0.50
2022-09-21T11:52:02.381Z,0.50
2022-09-21T11:54:40.810Z,1.63
2022-09-21T11:57:28.403Z,0.57
2022-09-21T12:00:04.162Z,0.30
2022-09-21T12:02:52.085Z,1.23
2022-09-21T12:05:43.079Z,0.40
2022-09-21T12:08:47.469Z,0.50
2022-09-21T12:11:24.661Z,0.30
2022-09-21T12:13:55.097Z,1.50
2022-09-21T12:16:45.394Z,0.40
2022-09-21T12:19:44.696Z,0.40
2022-09-21T12:22:41.697Z,0.50
2022-09-21T12:25:20.418Z,0.40
2022-09-21T12:27:56.858Z,0.40
2022-09-21T12:30:24.060Z,0.40
2022-09-21T12:32:57.113Z,0.60
2022-09-21T12:35:36.860Z,0.50
2022-09-21T12:38:24.388Z,0.50
2022-09-21T12:41:03.326Z,0.47
2022-09-21T12:43:45.467Z,0.47
2022-09-21T12:46:20.577Z,0.50
2022-09-21T12:48:47.783Z,0.37
2022-09-21T12:51:27.074Z,0.50
2022-09-21T12:53:55.173Z,0.50
2022-09-21T12:56:44.185Z,0.47
2022-09-21T12:59:17.048Z,0.60
2022-09-21T13:02:12.273Z,0.50
2022-09-21T13:05:07.314Z,0.40
2022-09-21T13:08:04.515Z,0.40
2022-09-21T13:10:42.756Z,0.40
2022-09-21T13:13:26.371Z,0.37
2022-09-21T13:15:53.162Z,0.63
2022-09-21T13:18:39.106Z,0.33
2022-09-21T13:21:26.322Z,0.50
2022-09-21T13:24:01.873Z,0.70
2022-09-21T13:26:38.027Z,0.50
2022-09-21T13:29:26.009Z,0.50
2022-09-21T13:31:57.581Z,0.30
2022-09-21T13:34:26.055Z,0.43
2022-09-21T13:37:11.191Z,0.60
2022-09-21T13:39:50.292Z,0.40
2022-09-21T13:42:34.876Z,1.30
2022-09-21T13:45:24.075Z,0.30
2022-09-21T13:47:55.448Z,1.37
2022-09-21T13:50:25.106Z,0.40
2022-09-21T13:52:54.076Z,0.30
2022-09-21T13:55:29.258Z,0.40
2022-09-21T13:57:56.828Z,0.70
2022-09-21T14:00:28.217Z,0.40
2022-09-21T14:03:04.215Z,0.43
2022-09-21T14:05:44.414Z,0.40
2022-09-21T14:08:19.882Z,0.40
2022-09-21T14:10:53.661Z,0.30
2022-09-21T14:13:41.937Z,0.40
2022-09-21T14:16:37.381Z,0.40
2022-09-21T14:19:19.444Z,0.50
2022-09-21T14:22:07.418Z,0.60
2022-09-21T14:24:42.130Z,0.50
2022-09-21T14:27:25.275Z,0.30
2022-09-21T14:30:04.776Z,0.40
2022-09-21T14:32:41.435Z,0.47
2022-09-21T14:35:19.399Z,0.60
2022-09-21T14:37:52.098Z,0.40
2022-09-21T14:40:25.654Z,0.30
2022-09-21T14:42:56.489Z,0.30
2022-09-21T14:45:54.704Z,0.23
2022-09-21T14:48:46.722Z,0.30
2022-09-21T14:51:44.099Z,0.30
2022-09-21T14:54:23.455Z,0.30
2022-09-21T14:57:04.764Z,0.63
2022-09-21T14:59:47.748Z,0.40
2022-09-21T15:02:28.854Z,0.50
2022-09-21T15:05:04.100Z,0.40
2022-09-21T15:08:21.247Z,1.03
2022-09-21T15:11:10.195Z,0.50
2022-09-21T15:13:58.339Z,0.30
2022-09-21T15:16:34.766Z,0.33
2022-09-21T15:19:35.241Z,0.73
2022-09-21T15:22:18.869Z,0.50
2022-09-21T15:24:56.106Z,0.40
2022-09-21T15:27:24.520Z,0.53
2022-09-21T15:29:53.778Z,0.40
2022-09-21T15:32:36.727Z,0.40
2022-09-21T15:35:06.902Z,0.80
2022-09-21T15:37:37.323Z,0.50
2022-09-21T15:40:06.462Z,0.77
2022-09-21T15:42:34.060Z,0.50
2022-09-21T15:45:15.089Z,0.43
2022-09-21T15:47:44.978Z,0.40
2022-09-21T15:50:14.851Z,1.00
2022-09-21T15:53:04.628Z,1.17
2022-09-21T15:55:32.419Z,2.40
2022-09-21T15:57:59.187Z,2.33
2022-09-21T16:00:31.706Z,1.90
2022-09-21T16:03:06.943Z,1.80
2022-09-21T16:05:45.916Z,2.30
2022-09-21T16:08:35.197Z,3.70
2022-09-21T16:11:12.174Z,2.63
2022-09-21T16:14:11.331Z,2.83
2022-09-21T16:17:04.847Z,2.00
2022-09-21T16:19:59.764Z,1.70
2022-09-21T16:22:44.260Z,1.30
2022-09-21T16:25:30.475Z,0.50
2022-09-21T16:27:59.458Z,0.80
2022-09-21T16:30:41.858Z,1.63
2022-09-21T16:33:59.841Z,1.00
2022-09-21T16:36:26.519Z,0.60
2022-09-21T16:38:53.614Z,1.30
2022-09-21T16:41:21.375Z,1.07
2022-09-21T16:43:51.011Z,1.00
2022-09-21T16:46:18.393Z,1.33
2022-09-21T16:48:45.244Z,1.17
2022-09-21T16:51:12.432Z,1.10
2022-09-21T16:53:39.168Z,0.90
2022-09-21T16:56:07.012Z,1.10
2022-09-21T16:58:33.709Z,1.30
2022-09-21T17:01:01.233Z,2.83
2022-09-21T17:03:30.722Z,2.30
2022-09-21T17:05:57.538Z,1.67
2022-09-21T17:08:24.555Z,0.90
2022-09-21T17:10:51.428Z,1.53
2022-09-21T17:13:19.247Z,0.70
2022-09-21T17:15:47.241Z,0.97
2022-09-21T17:18:14.130Z,0.90
2022-09-21T17:20:42.621Z,1.37
2022-09-21T17:23:09.389Z,1.40
2022-09-21T17:25:36.224Z,1.70
2022-09-21T17:28:06.801Z,0.90
2022-09-21T17:30:34.948Z,2.63
2022-09-21T17:33:01.755Z,1.63
2022-09-21T17:35:36.121Z,2.00
2022-09-21T17:38:02.835Z,1.70
2022-09-21T17:40:30.068Z,1.33
2022-09-21T17:43:22.211Z,1.00
2022-09-21T17:46:00.864Z,1.30
2022-09-21T17:48:33.211Z,1.37
2022-09-21T17:51:00.928Z,2.27
2022-09-21T17:53:34.507Z,2.40
2022-09-21T17:56:26.212Z,1.73
2022-09-21T17:58:57.913Z,5.43
2022-09-21T18:01:37.781Z,13.07
2022-09-21T18:04:05.190Z,14.30
2022-09-21T18:06:32.746Z,10.23
2022-09-21T18:08:59.808Z,9.07
2022-09-21T18:11:44.899Z,7.70
2022-09-21T18:14:21.394Z,6.87
2022-09-21T18:17:07.680Z,6.43
2022-09-21T18:19:46.262Z,6.13
2022-09-21T18:22:28.726Z,5.53
2022-09-21T18:24:56.059Z,6.43
2022-09-21T18:27:23.926Z,5.53
2022-09-21T18:29:50.783Z,5.73
2022-09-21T18:32:32.195Z,4.80
2022-09-21T18:35:17.475Z,4.10
2022-09-21T18:38:08.697Z,3.80
2022-09-21T18:40:53.900Z,2.90
2022-09-21T18:43:49.052Z,2.60
2022-09-21T18:46:39.172Z,3.07
2022-09-21T18:49:09.518Z,2.87
2022-09-21T18:51:57.474Z,3.40
2022-09-21T18:54:27.247Z,3.57
2022-09-21T18:56:55.441Z,7.00
2022-09-21T18:59:22.637Z,11.97
2022-09-21T19:01:50.671Z,20.30
2022-09-21T19:04:20.108Z,21.80
2022-09-21T19:06:51.722Z,32.43
2022-09-21T19:09:44.872Z,27.63
2022-09-21T19:12:39.129Z,25.63
2022-09-21T19:15:59.051Z,26.57
2022-09-21T19:18:30.538Z,25.73
2022-09-21T19:20:59.304Z,20.07
2022-09-21T19:23:44.455Z,15.43
2022-09-21T19:26:49.299Z,10.23
2022-09-21T19:29:41.661Z,10.67
2022-09-21T19:32:14.887Z,9.13
2022-09-21T19:34:41.937Z,8.07
2022-09-21T19:37:09.392Z,8.93
2022-09-21T19:39:36.565Z,10.17
2022-09-21T19:42:20.518Z,8.73
2022-09-21T19:45:02.324Z,15.20
2022-09-21T19:47:29.908Z,45.53
2022-09-21T19:50:17.810Z,56.43
2022-09-21T19:52:44.988Z,49.40
2022-09-21T19:55:38.771Z,42.53
2022-09-21T19:58:24.388Z,30.20
2022-09-21T20:00:57.219Z,27.60
2022-09-21T20:03:31.723Z,31.20
2022-09-21T20:06:04.686Z,24.20
2022-09-21T20:08:46.021Z,21.40
2022-09-21T20:11:19.054Z,21.30
2022-09-21T20:14:01.136Z,20.63
2022-09-21T20:16:36.515Z,11.60
2022-09-21T20:19:21.811Z,9.97
2022-09-21T20:21:49.344Z,9.37
2022-09-21T20:24:34.726Z,8.23
2022-09-21T20:27:01.808Z,6.43
2022-09-21T20:29:28.509Z,5.60
2022-09-21T20:31:56.192Z,4.90
2022-09-21T20:34:22.954Z,3.93
2022-09-21T20:36:49.693Z,6.00
2022-09-21T20:39:16.440Z,2.60
2022-09-21T20:41:43.159Z,2.50
2022-09-21T20:44:11.310Z,3.20
2022-09-21T20:46:38.057Z,2.80
2022-09-21T20:49:05.373Z,3.03
2022-09-21T20:51:34.036Z,4.13
2022-09-21T20:54:04.359Z,2.80
2022-09-21T20:56:31.285Z,3.13
2022-09-21T20:58:58.067Z,3.57
2022-09-21T21:01:25.232Z,1.47
2022-09-21T21:03:52.165Z,2.13
2022-09-21T21:06:19.041Z,1.73
2022-09-21T21:08:46.138Z,1.60
2022-09-21T21:11:14.378Z,1.33
2022-09-21T21:13:41.273Z,1.73
2022-09-21T21:16:11.752Z,1.53
2022-09-21T21:18:40.284Z,1.27
2022-09-21T21:21:06.996Z,1.23
2022-09-21T21:23:53.685Z,2.50
2022-09-21T21:26:20.604Z,2.70
2022-09-21T21:28:47.386Z,5.57
2022-09-21T21:31:18.251Z,5.63
2022-09-21T21:33:48.126Z,3.30
2022-09-21T21:36:15.042Z,3.93
2022-09-21T21:38:43.150Z,8.37
2022-09-21T21:41:12.886Z,2.27
2022-09-21T21:43:40.254Z,2.63
2022-09-21T21:46:08.547Z,1.90
2022-09-21T21:48:36.212Z,1.60
2022-09-21T21:51:03.447Z,1.37
2022-09-21T21:53:33.264Z,1.70
2022-09-21T21:56:07.589Z,1.47
2022-09-21T21:58:34.452Z,1.40
2022-09-21T22:01:11.582Z,1.50
2022-09-21T22:03:39.028Z,1.53
2022-09-21T22:06:06.320Z,1.40
2022-09-21T22:08:33.367Z,1.40
2022-09-21T22:11:00.288Z,1.60
2022-09-21T22:13:32.995Z,1.53
2022-09-21T22:16:09.215Z,1.70
2022-09-21T22:18:36.087Z,1.23
2022-09-21T22:21:21.642Z,1.20
2022-09-21T22:24:02.164Z,1.50
2022-09-21T22:26:29.848Z,1.57
2022-09-21T22:28:58.311Z,1.30
2022-09-21T22:31:26.768Z,1.40
2022-09-21T22:33:54.088Z,1.37
2022-09-21T22:36:22.632Z,1.17
2022-09-21T22:38:49.525Z,1.00
2022-09-21T22:41:18.675Z,1.40
2022-09-21T22:43:46.201Z,1.30
2022-09-21T22:46:13.329Z,4.27
2022-09-21T22:48:40.049Z,1.50
2022-09-21T22:51:06.821Z,1.50
2022-09-21T22:53:33.565Z,1.63
2022-09-21T22:56:04.415Z,1.30
2022-09-21T22:58:32.229Z,2.37
2022-09-21T23:01:24.290Z,2.60
2022-09-21T23:03:53.305Z,1.80
2022-09-21T23:06:20.750Z,1.40
2022-09-21T23:08:49.182Z,1.27
2022-09-21T23:11:17.893Z,1.30
2022-09-21T23:13:44.549Z,1.27
2022-09-21T23:16:12.615Z,1.03
2022-09-21T23:18:40.100Z,1.40
2022-09-21T23:21:10.423Z,1.20
2022-09-21T23:23:37.224Z,1.03
2022-09-21T23:26:11.899Z,1.00
2022-09-21T23:28:39.593Z,1.57
2022-09-21T23:31:10.877Z,1.73
2022-09-21T23:33:42.846Z,1.80
2022-09-21T23:36:10.560Z,1.20
2022-09-21T23:38:37.880Z,1.40
2022-09-21T23:41:06.339Z,1.00
2022-09-21T23:43:33.262Z,1.47
2022-09-21T23:45:59.979Z,1.83
2022-09-21T23:48:27.040Z,1.37
2022-09-21T23:50:55.393Z,1.07
2022-09-21T23:53:22.574Z,1.40
2022-09-21T23:55:49.288Z,1.00
2022-09-21T23:58:16.233Z,1.20
